sensor_id;sensor_type;location;lat;lon;timestamp;pressure;altitude;pressure_sealevel;temperature;humidity
51261;BME280;61705;46.228;24.812;2024-01-30T00:01:34;99866.97;;;-6.55;100.00
51261;BME280;61705;46.228;24.812;2024-01-30T00:04:01;99868.53;;;-6.57;100.00
51261;BME280;61705;46.228;24.812;2024-01-30T00:06:28;99867.22;;;-6.51;100.00
51261;BME280;61705;46.228;24.812;2024-01-30T00:08:54;99872.47;;;-6.49;100.00
51261;BME280;61705;46.228;24.812;2024-01-30T00:11:21;99867.22;;;-6.51;100.00
51261;BME280;61705;46.228;24.812;2024-01-30T00:13:48;99874.69;;;-6.55;100.00
51261;BME280;61705;46.228;24.812;2024-01-30T00:16:21;99869.19;;;-6.61;100.00
51261;BME280;61705;46.228;24.812;2024-01-30T00:18:48;99876.38;;;-6.56;100.00
51261;BME280;61705;46.228;24.812;2024-01-30T00:21:15;99875.47;;;-6.56;100.00
51261;BME280;61705;46.228;24.812;2024-01-30T00:23:41;99877.50;;;-6.65;100.00
51261;BME280;61705;46.228;24.812;2024-01-30T00:26:08;99873.78;;;-6.71;100.00
51261;BME280;61705;46.228;24.812;2024-01-30T00:28:34;99876.16;;;-6.74;100.00
51261;BME280;61705;46.228;24.812;2024-01-30T00:31:01;99878.66;;;-6.75;100.00
51261;BME280;61705;46.228;24.812;2024-01-30T00:33:28;99879.72;;;-6.72;100.00
51261;BME280;61705;46.228;24.812;2024-01-30T00:35:54;99881.22;;;-6.75;100.00
51261;BME280;61705;46.228;24.812;2024-01-30T00:38:21;99882.03;;;-6.76;100.00
51261;BME280;61705;46.228;24.812;2024-01-30T00:40:48;99884.06;;;-6.85;100.00
51261;BME280;61705;46.228;24.812;2024-01-30T00:43:15;99883.19;;;-6.86;100.00
51261;BME280;61705;46.228;24.812;2024-01-30T00:45:45;99889.38;;;-6.82;100.00
51261;BME280;61705;46.228;24.812;2024-01-30T00:48:12;99883.34;;;-6.83;100.00
51261;BME280;61705;46.228;24.812;2024-01-30T00:50:38;99890.19;;;-6.83;100.00
51261;BME280;61705;46.228;24.812;2024-01-30T00:53:05;99901.34;;;-6.83;100.00
51261;BME280;61705;46.228;24.812;2024-01-30T00:55:31;99893.16;;;-6.91;100.00
51261;BME280;61705;46.228;24.812;2024-01-30T00:57:58;99899.81;;;-6.94;100.00
51261;BME280;61705;46.228;24.812;2024-01-30T01:00:24;99899.81;;;-6.94;100.00
51261;BME280;61705;46.228;24.812;2024-01-30T01:02:55;99897.72;;;-6.86;100.00
51261;BME280;61705;46.228;24.812;2024-01-30T01:05:22;99892.03;;;-6.96;100.00
51261;BME280;61705;46.228;24.812;2024-01-30T01:07:48;99886.63;;;-7.00;100.00
51261;BME280;61705;46.228;24.812;2024-01-30T01:10:18;99885.56;;;-7.04;100.00
51261;BME280;61705;46.228;24.812;2024-01-30T01:12:45;99890.56;;;-7.20;100.00
51261;BME280;61705;46.228;24.812;2024-01-30T01:15:12;99888.47;;;-7.41;100.00
51261;BME280;61705;46.228;24.812;2024-01-30T01:17:39;99886.59;;;-7.43;100.00
51261;BME280;61705;46.228;24.812;2024-01-30T01:20:06;99876.44;;;-7.42;100.00
51261;BME280;61705;46.228;24.812;2024-01-30T01:22:33;99875.75;;;-7.24;100.00
51261;BME280;61705;46.228;24.812;2024-01-30T01:25:00;99870.34;;;-7.29;100.00
51261;BME280;61705;46.228;24.812;2024-01-30T01:27:27;99872.19;;;-7.41;100.00
51261;BME280;61705;46.228;24.812;2024-01-30T01:29:54;99870.44;;;-7.27;100.00
51261;BME280;61705;46.228;24.812;2024-01-30T01:32:20;99876.53;;;-7.25;100.00
51261;BME280;61705;46.228;24.812;2024-01-30T01:34:47;99879.41;;;-7.21;100.00
51261;BME280;61705;46.228;24.812;2024-01-30T01:37:14;99874.69;;;-7.28;100.00
51261;BME280;61705;46.228;24.812;2024-01-30T01:39:41;99874.22;;;-7.35;100.00
51261;BME280;61705;46.228;24.812;2024-01-30T01:42:07;99877.84;;;-7.32;100.00
51261;BME280;61705;46.228;24.812;2024-01-30T01:44:34;99873.72;;;-7.30;100.00
51261;BME280;61705;46.228;24.812;2024-01-30T01:47:01;99878.75;;;-7.31;100.00
51261;BME280;61705;46.228;24.812;2024-01-30T01:49:27;99875.75;;;-7.24;100.00
51261;BME280;61705;46.228;24.812;2024-01-30T01:51:55;99866.88;;;-7.29;100.00
51261;BME280;61705;46.228;24.812;2024-01-30T01:54:23;99870.06;;;-7.33;100.00
51261;BME280;61705;46.228;24.812;2024-01-30T01:56:51;99872.38;;;-7.38;100.00
51261;BME280;61705;46.228;24.812;2024-01-30T01:59:18;99875.25;;;-7.47;100.00
51261;BME280;61705;46.228;24.812;2024-01-30T02:01:45;99870.31;;;-7.44;100.00
51261;BME280;61705;46.228;24.812;2024-01-30T02:04:15;99863.47;;;-7.43;100.00
51261;BME280;61705;46.228;24.812;2024-01-30T02:06:43;99864.97;;;-7.47;100.00
51261;BME280;61705;46.228;24.812;2024-01-30T02:09:10;99870.63;;;-7.52;100.00
51261;BME280;61705;46.228;24.812;2024-01-30T02:11:36;99869.66;;;-7.54;100.00
51261;BME280;61705;46.228;24.812;2024-01-30T02:14:03;99869.34;;;-7.59;100.00
51261;BME280;61705;46.228;24.812;2024-01-30T02:16:31;99869.47;;;-7.57;100.00
51261;BME280;61705;46.228;24.812;2024-01-30T02:18:57;99863.63;;;-7.55;100.00
51261;BME280;61705;46.228;24.812;2024-01-30T02:21:24;99865.13;;;-7.58;100.00
51261;BME280;61705;46.228;24.812;2024-01-30T02:23:51;99867.31;;;-7.65;100.00
51261;BME280;61705;46.228;24.812;2024-01-30T02:26:18;99863.16;;;-7.63;100.00
51261;BME280;61705;46.228;24.812;2024-01-30T02:28:45;99864.31;;;-7.57;100.00
51261;BME280;61705;46.228;24.812;2024-01-30T02:31:12;99862.38;;;-7.61;100.00
51261;BME280;61705;46.228;24.812;2024-01-30T02:33:38;99865.72;;;-7.63;100.00
51261;BME280;61705;46.228;24.812;2024-01-30T02:36:05;99871.22;;;-7.56;100.00
51261;BME280;61705;46.228;24.812;2024-01-30T02:38:31;99861.50;;;-7.62;100.00
51261;BME280;61705;46.228;24.812;2024-01-30T02:40:58;99858.72;;;-7.65;100.00
51261;BME280;61705;46.228;24.812;2024-01-30T02:43:24;99863.69;;;-7.68;100.00
51261;BME280;61705;46.228;24.812;2024-01-30T02:45:51;99860.22;;;-7.69;100.00
51261;BME280;61705;46.228;24.812;2024-01-30T02:48:18;99866.50;;;-7.64;100.00
51261;BME280;61705;46.228;24.812;2024-01-30T02:50:44;99857.84;;;-7.66;100.00
51261;BME280;61705;46.228;24.812;2024-01-30T02:53:12;99858.72;;;-7.65;100.00
51261;BME280;61705;46.228;24.812;2024-01-30T02:55:38;99857.66;;;-7.69;100.00
51261;BME280;61705;46.228;24.812;2024-01-30T02:58:05;99865.56;;;-7.66;100.00
51261;BME280;61705;46.228;24.812;2024-01-30T03:00:32;99864.75;;;-7.65;100.00
51261;BME280;61705;46.228;24.812;2024-01-30T03:02:58;99862.06;;;-7.66;100.00
51261;BME280;61705;46.228;24.812;2024-01-30T03:05:25;99865.59;;;-7.79;100.00
51261;BME280;61705;46.228;24.812;2024-01-30T03:07:52;99863.78;;;-7.80;100.00
51261;BME280;61705;46.228;24.812;2024-01-30T03:10:19;99858.88;;;-7.90;100.00
51261;BME280;61705;46.228;24.812;2024-01-30T03:12:46;99868.06;;;-7.94;100.00
51261;BME280;61705;46.228;24.812;2024-01-30T03:15:12;99870.44;;;-7.97;100.00
51261;BME280;61705;46.228;24.812;2024-01-30T03:17:39;99868.47;;;-8.01;100.00
51261;BME280;61705;46.228;24.812;2024-01-30T03:20:06;99867.09;;;-7.96;100.00
51261;BME280;61705;46.228;24.812;2024-01-30T03:22:32;99871.91;;;-8.00;100.00
51261;BME280;61705;46.228;24.812;2024-01-30T03:24:59;99878.25;;;-8.08;100.00
51261;BME280;61705;46.228;24.812;2024-01-30T03:27:26;99872.44;;;-8.06;100.00
51261;BME280;61705;46.228;24.812;2024-01-30T03:29:52;99873.72;;;-8.13;100.00
51261;BME280;61705;46.228;24.812;2024-01-30T03:32:19;99875.69;;;-8.08;100.00
51261;BME280;61705;46.228;24.812;2024-01-30T03:34:46;99870.47;;;-8.10;100.00
51261;BME280;61705;46.228;24.812;2024-01-30T03:37:12;99876.38;;;-8.11;100.00
51261;BME280;61705;46.228;24.812;2024-01-30T03:39:39;99874.00;;;-8.08;100.00
51261;BME280;61705;46.228;24.812;2024-01-30T03:42:06;99874.59;;;-8.12;100.00
51261;BME280;61705;46.228;24.812;2024-01-30T03:44:32;99867.31;;;-8.19;100.00
51261;BME280;61705;46.228;24.812;2024-01-30T03:46:59;99875.88;;;-8.19;100.00
51261;BME280;61705;46.228;24.812;2024-01-30T03:49:26;99872.44;;;-8.32;100.00
51261;BME280;61705;46.228;24.812;2024-01-30T03:51:53;99871.88;;;-8.42;100.00
51261;BME280;61705;46.228;24.812;2024-01-30T03:54:19;99871.88;;;-8.42;100.00
51261;BME280;61705;46.228;24.812;2024-01-30T03:56:46;99872.25;;;-8.36;100.00
51261;BME280;61705;46.228;24.812;2024-01-30T03:59:13;99881.91;;;-8.31;100.00
51261;BME280;61705;46.228;24.812;2024-01-30T04:01:39;99876.78;;;-8.31;100.00
51261;BME280;61705;46.228;24.812;2024-01-30T04:04:06;99876.19;;;-8.27;100.00
51261;BME280;61705;46.228;24.812;2024-01-30T04:06:33;99875.59;;;-8.23;100.00
51261;BME280;61705;46.228;24.812;2024-01-30T04:08:59;99874.81;;;-8.22;100.00
51261;BME280;61705;46.228;24.812;2024-01-30T04:11:26;99882.69;;;-8.32;100.00
51261;BME280;61705;46.228;24.812;2024-01-30T04:13:52;99877.38;;;-8.36;100.00
51261;BME280;61705;46.228;24.812;2024-01-30T04:16:22;99880.56;;;-8.40;100.00
51261;BME280;61705;46.228;24.812;2024-01-30T04:18:49;99883.31;;;-8.37;100.00
51261;BME280;61705;46.228;24.812;2024-01-30T04:21:16;99878.97;;;-8.38;100.00
51261;BME280;61705;46.228;24.812;2024-01-30T04:23:42;99879.25;;;-8.33;100.00
51261;BME280;61705;46.228;24.812;2024-01-30T04:26:09;99885.19;;;-8.34;100.00
51261;BME280;61705;46.228;24.812;2024-01-30T04:28:35;99895.16;;;-8.39;100.00
51261;BME280;61705;46.228;24.812;2024-01-30T04:31:02;99901.16;;;-8.38;100.00
51261;BME280;61705;46.228;24.812;2024-01-30T04:33:29;99891.09;;;-8.48;100.00
51261;BME280;61705;46.228;24.812;2024-01-30T04:35:55;99898.91;;;-8.47;100.00
51261;BME280;61705;46.228;24.812;2024-01-30T04:38:22;99896.81;;;-8.52;100.00
51261;BME280;61705;46.228;24.812;2024-01-30T04:40:48;99899.38;;;-8.52;100.00
51261;BME280;61705;46.228;24.812;2024-01-30T04:43:15;99899.19;;;-8.55;100.00
51261;BME280;61705;46.228;24.812;2024-01-30T04:45:42;99904.50;;;-8.52;100.00
51261;BME280;61705;46.228;24.812;2024-01-30T04:48:08;99906.28;;;-8.51;100.00
51261;BME280;61705;46.228;24.812;2024-01-30T04:50:35;99897.09;;;-8.48;100.00
51261;BME280;61705;46.228;24.812;2024-01-30T04:53:02;99900.59;;;-8.47;100.00
51261;BME280;61705;46.228;24.812;2024-01-30T04:55:29;99899.59;;;-8.49;100.00
51261;BME280;61705;46.228;24.812;2024-01-30T04:57:55;99901.47;;;-8.47;100.00
51261;BME280;61705;46.228;24.812;2024-01-30T05:00:22;99899.50;;;-8.51;100.00
51261;BME280;61705;46.228;24.812;2024-01-30T05:02:49;99899.38;;;-8.52;100.00
51261;BME280;61705;46.228;24.812;2024-01-30T05:05:15;99893.09;;;-8.57;100.00
51261;BME280;61705;46.228;24.812;2024-01-30T05:07:43;99891.09;;;-8.62;100.00
51261;BME280;61705;46.228;24.812;2024-01-30T05:10:09;99898.00;;;-8.61;100.00
51261;BME280;61705;46.228;24.812;2024-01-30T05:12:36;99896.91;;;-8.64;100.00
51261;BME280;61705;46.228;24.812;2024-01-30T05:15:02;99896.59;;;-8.69;100.00
51261;BME280;61705;46.228;24.812;2024-01-30T05:17:29;99893.97;;;-8.57;100.00
51261;BME280;61705;46.228;24.812;2024-01-30T05:19:56;99897.13;;;-8.61;100.00
51261;BME280;61705;46.228;24.812;2024-01-30T05:22:22;99899.09;;;-8.57;100.00
51261;BME280;61705;46.228;24.812;2024-01-30T05:24:49;99898.88;;;-8.60;100.00
51261;BME280;61705;46.228;24.812;2024-01-30T05:27:16;99898.00;;;-8.61;100.00
51261;BME280;61705;46.228;24.812;2024-01-30T05:29:42;99904.31;;;-8.55;100.00
51261;BME280;61705;46.228;24.812;2024-01-30T05:32:09;99899.69;;;-8.61;100.00
51261;BME280;61705;46.228;24.812;2024-01-30T05:34:37;99899.56;;;-8.63;100.00
51261;BME280;61705;46.228;24.812;2024-01-30T05:37:03;99897.63;;;-8.53;100.00
51261;BME280;61705;46.228;24.812;2024-01-30T05:39:30;99902.06;;;-8.51;100.00
51261;BME280;61705;46.228;24.812;2024-01-30T05:41:59;99913.69;;;-8.43;100.00
51261;BME280;61705;46.228;24.812;2024-01-30T05:44:26;99904.31;;;-8.55;100.00
51261;BME280;61705;46.228;24.812;2024-01-30T05:46:52;99911.50;;;-8.63;100.00
51261;BME280;61705;46.228;24.812;2024-01-30T05:49:19;99908.94;;;-8.50;100.00
51261;BME280;61705;46.228;24.812;2024-01-30T05:51:46;99912.19;;;-8.52;100.00
51261;BME280;61705;46.228;24.812;2024-01-30T05:54:13;99918.81;;;-8.56;100.00
51261;BME280;61705;46.228;24.812;2024-01-30T05:56:43;99911.31;;;-8.53;100.00
51261;BME280;61705;46.228;24.812;2024-01-30T05:59:09;99915.25;;;-8.45;100.00
51261;BME280;61705;46.228;24.812;2024-01-30T06:01:36;99914.75;;;-8.52;100.00
51261;BME280;61705;46.228;24.812;2024-01-30T06:04:03;99921.06;;;-8.61;100.00
51261;BME280;61705;46.228;24.812;2024-01-30T06:06:30;99932.50;;;-8.55;100.00
51261;BME280;61705;46.228;24.812;2024-01-30T06:08:56;99929.59;;;-8.73;100.00
51261;BME280;61705;46.228;24.812;2024-01-30T06:11:23;99935.75;;;-8.71;100.00
51261;BME280;61705;46.228;24.812;2024-01-30T06:13:49;99939.97;;;-8.59;100.00
51261;BME280;61705;46.228;24.812;2024-01-30T06:16:16;99926.78;;;-8.51;100.00
51261;BME280;61705;46.228;24.812;2024-01-30T06:18:43;99922.56;;;-8.51;100.00
51261;BME280;61705;46.228;24.812;2024-01-30T06:21:09;99926.97;;;-8.48;100.00
51261;BME280;61705;46.228;24.812;2024-01-30T06:23:38;99937.03;;;-8.51;100.00
51261;BME280;61705;46.228;24.812;2024-01-30T06:26:06;99927.31;;;-8.44;100.00
51261;BME280;61705;46.228;24.812;2024-01-30T06:28:33;99921.47;;;-8.41;100.00
51261;BME280;61705;46.228;24.812;2024-01-30T06:31:00;99929.16;;;-8.41;100.00
51261;BME280;61705;46.228;24.812;2024-01-30T06:33:27;99926.50;;;-8.43;100.00
51261;BME280;61705;46.228;24.812;2024-01-30T06:35:54;99932.44;;;-8.44;100.00
51261;BME280;61705;46.228;24.812;2024-01-30T06:38:20;99932.44;;;-8.44;100.00
51261;BME280;61705;46.228;24.812;2024-01-30T06:40:47;99942.38;;;-8.48;100.00
51261;BME280;61705;46.228;24.812;2024-01-30T06:43:14;99925.72;;;-8.42;100.00
51261;BME280;61705;46.228;24.812;2024-01-30T06:45:40;99930.75;;;-8.30;100.00
51261;BME280;61705;46.228;24.812;2024-01-30T06:48:09;99937.72;;;-8.27;100.00
51261;BME280;61705;46.228;24.812;2024-01-30T06:50:35;99947.09;;;-8.28;100.00
51261;BME280;61705;46.228;24.812;2024-01-30T06:53:02;99935.75;;;-8.31;100.00
51261;BME280;61705;46.228;24.812;2024-01-30T06:55:28;99937.44;;;-8.19;100.00
51261;BME280;61705;46.228;24.812;2024-01-30T06:57:55;99937.72;;;-8.14;100.00
51261;BME280;61705;46.228;24.812;2024-01-30T07:00:22;99937.84;;;-8.13;100.00
51261;BME280;61705;46.228;24.812;2024-01-30T07:02:49;99947.69;;;-8.05;100.00
51261;BME280;61705;46.228;24.812;2024-01-30T07:05:15;99944.94;;;-8.08;100.00
51261;BME280;61705;46.228;24.812;2024-01-30T07:07:43;99943.25;;;-8.08;100.00
51261;BME280;61705;46.228;24.812;2024-01-30T07:10:10;99951.94;;;-8.06;100.00
51261;BME280;61705;46.228;24.812;2024-01-30T07:12:36;99947.59;;;-7.94;100.00
51261;BME280;61705;46.228;24.812;2024-01-30T07:15:03;99948.59;;;-7.78;100.00
51261;BME280;61705;46.228;24.812;2024-01-30T07:17:30;99943.13;;;-7.83;100.00
51261;BME280;61705;46.228;24.812;2024-01-30T07:22:46;99937.09;;;-7.70;100.00
51261;BME280;61705;46.228;24.812;2024-01-30T07:25:13;99949.44;;;-7.65;100.00
51261;BME280;61705;46.228;24.812;2024-01-30T07:27:40;99944.97;;;-7.54;100.00
51261;BME280;61705;46.228;24.812;2024-01-30T07:30:07;99948.72;;;-7.49;100.00
51261;BME280;61705;46.228;24.812;2024-01-30T07:32:34;99943.75;;;-7.46;100.00
51261;BME280;61705;46.228;24.812;2024-01-30T07:35:00;99944.03;;;-7.28;100.00
51261;BME280;61705;46.228;24.812;2024-01-30T07:37:34;99948.38;;;-7.27;100.00
51261;BME280;61705;46.228;24.812;2024-01-30T07:40:02;99935.53;;;-7.27;100.00
51261;BME280;61705;46.228;24.812;2024-01-30T07:42:29;99945.94;;;-7.10;100.00
51261;BME280;61705;46.228;24.812;2024-01-30T07:44:56;99944.50;;;-7.20;100.00
51261;BME280;61705;46.228;24.812;2024-01-30T07:47:22;99946.19;;;-7.21;100.00
51261;BME280;61705;46.228;24.812;2024-01-30T07:49:49;99950.72;;;-7.17;100.00
51261;BME280;61705;46.228;24.812;2024-01-30T07:52:16;99946.50;;;-7.01;100.00
51261;BME280;61705;46.228;24.812;2024-01-30T07:54:43;99947.13;;;-6.91;100.00
51261;BME280;61705;46.228;24.812;2024-01-30T07:57:11;99942.66;;;-6.80;100.00
51261;BME280;61705;46.228;24.812;2024-01-30T07:59:37;99939.84;;;-6.70;100.00
51261;BME280;61705;46.228;24.812;2024-01-30T08:02:04;99930.63;;;-6.66;100.00
51261;BME280;61705;46.228;24.812;2024-01-30T08:04:31;99930.00;;;-6.62;100.00
51261;BME280;61705;46.228;24.812;2024-01-30T08:06:57;99926.00;;;-6.72;100.00
51261;BME280;61705;46.228;24.812;2024-01-30T08:09:24;99918.28;;;-6.57;100.00
51261;BME280;61705;46.228;24.812;2024-01-30T08:11:51;99924.75;;;-6.34;100.00
51261;BME280;61705;46.228;24.812;2024-01-30T08:14:18;99926.25;;;-6.23;100.00
51261;BME280;61705;46.228;24.812;2024-01-30T08:16:44;99922.81;;;-6.23;100.00
51261;BME280;61705;46.228;24.812;2024-01-30T08:19:11;99926.88;;;-6.12;100.00
51261;BME280;61705;46.228;24.812;2024-01-30T08:21:38;99920.94;;;-6.11;100.00
51261;BME280;61705;46.228;24.812;2024-01-30T08:24:08;99927.03;;;-6.09;100.00
51261;BME280;61705;46.228;24.812;2024-01-30T08:26:34;99927.59;;;-6.14;100.00
51261;BME280;61705;46.228;24.812;2024-01-30T08:29:01;99926.09;;;-6.11;100.00
51261;BME280;61705;46.228;24.812;2024-01-30T08:31:28;99924.81;;;-6.03;100.00
51261;BME280;61705;46.228;24.812;2024-01-30T08:33:55;99925.09;;;-5.98;100.00
51261;BME280;61705;46.228;24.812;2024-01-30T08:36:22;99924.03;;;-5.85;100.00
51261;BME280;61705;46.228;24.812;2024-01-30T08:39:04;99925.00;;;-5.83;100.00
51261;BME280;61705;46.228;24.812;2024-01-30T08:41:32;99915.47;;;-5.69;100.00
51261;BME280;61705;46.228;24.812;2024-01-30T08:43:58;99927.66;;;-5.67;100.00
51261;BME280;61705;46.228;24.812;2024-01-30T08:46:25;99925.72;;;-5.55;100.00
51261;BME280;61705;46.228;24.812;2024-01-30T08:48:52;99931.72;;;-5.39;100.00
51261;BME280;61705;46.228;24.812;2024-01-30T08:51:19;99927.50;;;-5.37;100.00
51261;BME280;61705;46.228;24.812;2024-01-30T08:53:46;99927.69;;;-5.34;100.00
51261;BME280;61705;46.228;24.812;2024-01-30T08:56:13;99918.25;;;-5.34;100.00
51261;BME280;61705;46.228;24.812;2024-01-30T08:58:39;99919.00;;;-5.20;100.00
51261;BME280;61705;46.228;24.812;2024-01-30T09:01:06;99920.31;;;-5.12;100.00
51261;BME280;61705;46.228;24.812;2024-01-30T09:03:33;99913.78;;;-5.05;100.00
51261;BME280;61705;46.228;24.812;2024-01-30T09:06:00;99916.09;;;-4.93;100.00
51261;BME280;61705;46.228;24.812;2024-01-30T09:08:26;99919.72;;;-4.90;100.00
51261;BME280;61705;46.228;24.812;2024-01-30T09:10:53;99907.97;;;-4.85;100.00
51261;BME280;61705;46.228;24.812;2024-01-30T09:13:21;99915.94;;;-4.80;100.00
51261;BME280;61705;46.228;24.812;2024-01-30T09:15:48;99907.34;;;-4.63;100.00
51261;BME280;61705;46.228;24.812;2024-01-30T09:18:14;99905.00;;;-4.58;100.00
51261;BME280;61705;46.228;24.812;2024-01-30T09:20:41;99899.22;;;-4.54;100.00
51261;BME280;61705;46.228;24.812;2024-01-30T09:23:08;99893.69;;;-4.44;100.00
51261;BME280;61705;46.228;24.812;2024-01-30T09:25:34;99886.38;;;-4.35;100.00
51261;BME280;61705;46.228;24.812;2024-01-30T09:28:01;99888.25;;;-4.32;100.00
51261;BME280;61705;46.228;24.812;2024-01-30T09:30:28;99882.56;;;-4.25;100.00
51261;BME280;61705;46.228;24.812;2024-01-30T09:32:55;99880.97;;;-4.23;100.00
51261;BME280;61705;46.228;24.812;2024-01-30T09:35:21;99876.00;;;-4.18;100.00
51261;BME280;61705;46.228;24.812;2024-01-30T09:37:48;99874.47;;;-4.15;100.00
51261;BME280;61705;46.228;24.812;2024-01-30T09:40:15;99876.81;;;-4.01;100.00
51261;BME280;61705;46.228;24.812;2024-01-30T09:42:48;99871.22;;;-3.93;100.00
51261;BME280;61705;46.228;24.812;2024-01-30T09:45:20;99872.59;;;-3.82;100.00
51261;BME280;61705;46.228;24.812;2024-01-30T09:47:50;99864.06;;;-3.61;100.00
51261;BME280;61705;46.228;24.812;2024-01-30T09:50:17;99861.38;;;-3.45;100.00
51261;BME280;61705;46.228;24.812;2024-01-30T09:52:44;99860.22;;;-3.32;100.00
51261;BME280;61705;46.228;24.812;2024-01-30T09:55:11;99857.84;;;-3.27;100.00
51261;BME280;61705;46.228;24.812;2024-01-30T09:57:39;99856.06;;;-3.28;100.00
51261;BME280;61705;46.228;24.812;2024-01-30T10:00:06;99854.44;;;-3.26;100.00
51261;BME280;61705;46.228;24.812;2024-01-30T10:02:35;99846.88;;;-3.22;100.00
51261;BME280;61705;46.228;24.812;2024-01-30T10:05:02;99844.91;;;-3.08;100.00
51261;BME280;61705;46.228;24.812;2024-01-30T10:07:29;99847.84;;;-3.00;100.00
51261;BME280;61705;46.228;24.812;2024-01-30T10:09:57;99837.56;;;-2.99;100.00
51261;BME280;61705;46.228;24.812;2024-01-30T10:12:27;99829.38;;;-2.89;100.00
51261;BME280;61705;46.228;24.812;2024-01-30T10:14:55;99833.22;;;-2.79;100.00
51261;BME280;61705;46.228;24.812;2024-01-30T10:17:25;99832.63;;;-2.73;100.00
51261;BME280;61705;46.228;24.812;2024-01-30T10:19:59;99826.31;;;-2.59;100.00
51261;BME280;61705;46.228;24.812;2024-01-30T10:22:27;99835.09;;;-2.55;100.00
51261;BME280;61705;46.228;24.812;2024-01-30T10:24:53;99820.34;;;-2.56;100.00
51261;BME280;61705;46.228;24.812;2024-01-30T10:27:25;99823.28;;;-2.49;100.00
51261;BME280;61705;46.228;24.812;2024-01-30T10:29:52;99813.28;;;-2.40;100.00
51261;BME280;61705;46.228;24.812;2024-01-30T10:32:19;99813.28;;;-2.40;100.00
51261;BME280;61705;46.228;24.812;2024-01-30T10:34:46;99806.75;;;-2.30;100.00
51261;BME280;61705;46.228;24.812;2024-01-30T10:37:13;99807.91;;;-2.23;100.00
51261;BME280;61705;46.228;24.812;2024-01-30T10:39:44;99804.31;;;-2.27;100.00
51261;BME280;61705;46.228;24.812;2024-01-30T10:42:15;99808.84;;;-2.21;100.00
51261;BME280;61705;46.228;24.812;2024-01-30T10:44:55;99798.44;;;-2.00;100.00
51261;BME280;61705;46.228;24.812;2024-01-30T10:47:27;99801.31;;;-1.93;100.00
51261;BME280;61705;46.228;24.812;2024-01-30T10:49:55;99795.19;;;-1.72;100.00
51261;BME280;61705;46.228;24.812;2024-01-30T10:52:23;99783.34;;;-1.65;100.00
51261;BME280;61705;46.228;24.812;2024-01-30T10:54:51;99780.81;;;-1.64;100.00
51261;BME280;61705;46.228;24.812;2024-01-30T10:57:18;99780.50;;;-1.49;100.00
51261;BME280;61705;46.228;24.812;2024-01-30T10:59:45;99780.66;;;-1.45;100.00
51261;BME280;61705;46.228;24.812;2024-01-30T11:02:13;99777.56;;;-1.58;100.00
51261;BME280;61705;46.228;24.812;2024-01-30T11:04:40;99771.84;;;-1.50;100.00
51261;BME280;61705;46.228;24.812;2024-01-30T11:07:17;99769.56;;;-1.40;100.00
51261;BME280;61705;46.228;24.812;2024-01-30T11:09:51;99774.25;;;-1.30;100.00
51261;BME280;61705;46.228;24.812;2024-01-30T11:12:21;99775.84;;;-1.34;100.00
51261;BME280;61705;46.228;24.812;2024-01-30T11:14:48;99757.63;;;-1.11;100.00
51261;BME280;61705;46.228;24.812;2024-01-30T11:17:14;99751.59;;;-1.10;100.00
51261;BME280;61705;46.228;24.812;2024-01-30T11:19:41;99750.56;;;-1.15;100.00
51261;BME280;61705;46.228;24.812;2024-01-30T11:22:08;99745.75;;;-1.05;100.00
51261;BME280;61705;46.228;24.812;2024-01-30T11:24:41;99736.81;;;-0.87;100.00
51261;BME280;61705;46.228;24.812;2024-01-30T11:27:08;99743.66;;;-0.89;100.00
51261;BME280;61705;46.228;24.812;2024-01-30T11:29:36;99728.78;;;-0.95;100.00
51261;BME280;61705;46.228;24.812;2024-01-30T11:32:04;99727.84;;;-0.97;100.00
51261;BME280;61705;46.228;24.812;2024-01-30T11:34:32;99740.34;;;-0.85;100.00
51261;BME280;61705;46.228;24.812;2024-01-30T11:36:59;99725.56;;;-0.88;100.00
51261;BME280;61705;46.228;24.812;2024-01-30T11:39:33;99721.13;;;-0.65;100.00
51261;BME280;61705;46.228;24.812;2024-01-30T11:42:00;99718.06;;;-0.52;100.00
51261;BME280;61705;46.228;24.812;2024-01-30T11:44:27;99713.69;;;-0.54;100.00
51261;BME280;61705;46.228;24.812;2024-01-30T11:46:54;99714.97;;;-0.40;100.00
51261;BME280;61705;46.228;24.812;2024-01-30T11:49:21;99707.19;;;-0.40;100.00
51261;BME280;61705;46.228;24.812;2024-01-30T11:51:48;99702.19;;;-0.34;100.00
51261;BME280;61705;46.228;24.812;2024-01-30T11:54:15;99695.63;;;-0.50;100.00
51261;BME280;61705;46.228;24.812;2024-01-30T11:56:42;99696.50;;;-0.49;100.00
51261;BME280;61705;46.228;24.812;2024-01-30T11:59:09;99698.41;;;-0.43;100.00
51261;BME280;61705;46.228;24.812;2024-01-30T12:01:36;99697.72;;;-0.38;100.00
51261;BME280;61705;46.228;24.812;2024-01-30T12:04:03;99700.66;;;-0.27;100.00
51261;BME280;61705;46.228;24.812;2024-01-30T12:06:29;99683.03;;;-0.37;100.00
51261;BME280;61705;46.228;24.812;2024-01-30T12:09:01;99674.28;;;-0.41;100.00
51261;BME280;61705;46.228;24.812;2024-01-30T12:11:30;99675.00;;;-0.16;100.00
51261;BME280;61705;46.228;24.812;2024-01-30T12:13:57;99682.25;;;-0.05;100.00
51261;BME280;61705;46.228;24.812;2024-01-30T12:16:24;99680.31;;;-0.12;100.00
51261;BME280;61705;46.228;24.812;2024-01-30T12:18:58;99675.81;;;-0.17;100.00
51261;BME280;61705;46.228;24.812;2024-01-30T12:21:25;99677.69;;;-0.13;100.00
51261;BME280;61705;46.228;24.812;2024-01-30T12:23:52;99681.41;;;-0.04;100.00
51261;BME280;61705;46.228;24.812;2024-01-30T12:28:16;99678.41;;;0.13;100.00
51261;BME280;61705;46.228;24.812;2024-01-30T12:34:21;99675.31;;;0.25;100.00
51261;BME280;61705;46.228;24.812;2024-01-30T12:36:51;99665.63;;;0.20;100.00
51261;BME280;61705;46.228;24.812;2024-01-30T12:39:18;99662.81;;;0.13;100.00
51261;BME280;61705;46.228;24.812;2024-01-30T12:41:45;99665.41;;;0.11;100.00
51261;BME280;61705;46.228;24.812;2024-01-30T12:44:13;99662.97;;;0.17;100.00
51261;BME280;61705;46.228;24.812;2024-01-30T12:46:39;99657.19;;;0.28;100.00
51261;BME280;61705;46.228;24.812;2024-01-30T12:49:06;99654.44;;;0.23;100.00